createdAt,value
2022-10-14T05:03:26.190Z,0.98
2022-10-14T05:08:29.809Z,1.20
2022-10-14T05:13:35.096Z,0.93
2022-10-14T05:18:40.884Z,1.37
2022-10-14T05:23:45.327Z,0.90
2022-10-14T05:28:49.647Z,0.60
2022-10-14T05:33:56.972Z,0.77
2022-10-14T05:39:00.637Z,0.88
2022-10-14T05:44:06.292Z,0.57
2022-10-14T05:49:11.802Z,0.43
2022-10-14T05:54:15.676Z,0.47
2022-10-14T05:59:19.814Z,0.50
2022-10-14T06:04:25.016Z,0.70
2022-10-14T06:09:31.274Z,0.40
2022-10-14T06:14:34.833Z,0.22
2022-10-14T06:19:39.746Z,0.45
2022-10-14T06:24:43.269Z,0.45
2022-10-14T06:29:46.947Z,0.50
2022-10-14T06:34:51.833Z,0.40
2022-10-14T06:39:55.463Z,0.47
2022-10-14T06:44:58.985Z,0.50
2022-10-14T06:50:03.916Z,0.30
2022-10-14T06:55:08.501Z,0.30
2022-10-14T07:05:17.337Z,0.30
2022-10-14T07:10:20.990Z,0.00
2022-10-14T07:15:24.622Z,0.20
2022-10-14T07:20:29.503Z,0.10
2022-10-14T07:25:33.566Z,0.20
2022-10-14T07:30:37.131Z,0.40
2022-10-14T07:35:42.133Z,0.10
2022-10-14T07:40:45.821Z,0.20
2022-10-14T07:45:50.997Z,0.20
2022-10-14T07:50:55.940Z,0.20
2022-10-14T07:56:00.341Z,0.30
2022-10-14T08:01:03.908Z,0.10
2022-10-14T08:06:09.569Z,0.22
2022-10-14T08:11:15.522Z,0.40
2022-10-14T08:16:21.481Z,0.52
2022-10-14T08:21:27.048Z,0.45
2022-10-14T08:26:32.915Z,0.20
2022-10-14T08:31:36.465Z,0.50
2022-10-14T08:36:41.735Z,0.40
2022-10-14T08:42:06.220Z,0.32
2022-10-14T08:47:14.292Z,0.28
2022-10-14T08:52:24.759Z,0.30
2022-10-14T08:57:33.497Z,0.00
2022-10-14T09:02:43.956Z,0.10
2022-10-14T09:12:59.676Z,0.00
2022-10-14T09:18:08.758Z,0.20
2022-10-14T09:23:18.236Z,0.20
2022-10-14T09:28:22.352Z,0.20
2022-10-14T09:33:28.303Z,0.10
2022-10-14T09:38:33.398Z,0.43
2022-10-14T09:48:48.632Z,0.20
2022-10-14T09:53:56.253Z,0.10
2022-10-14T09:59:00.253Z,0.20
2022-10-14T10:04:27.335Z,0.10
2022-10-14T10:09:32.666Z,0.32
2022-10-14T10:14:36.229Z,0.45
2022-10-14T10:19:43.072Z,0.10
2022-10-14T10:24:48.677Z,0.32
2022-10-14T10:29:52.337Z,0.20
2022-10-14T10:35:09.782Z,0.30
2022-10-14T10:40:33.254Z,0.30
2022-10-14T10:45:46.617Z,0.30
2022-10-14T10:50:58.365Z,0.40
2022-10-14T10:56:13.532Z,0.28
2022-10-14T11:01:31.580Z,0.00
2022-10-14T11:07:00.871Z,0.20
2022-10-14T11:12:15.621Z,0.32
2022-10-14T11:17:29.752Z,0.10
2022-10-14T11:22:48.996Z,0.10
2022-10-14T11:28:00.759Z,0.10
2022-10-14T11:33:39.712Z,0.00
2022-10-14T11:39:04.300Z,0.20
2022-10-14T11:44:16.746Z,0.15
2022-10-14T11:49:25.592Z,0.00
2022-10-14T11:54:36.646Z,0.22
2022-10-14T11:59:47.555Z,0.10
2022-10-14T12:04:57.142Z,0.10
2022-10-14T12:10:04.117Z,0.55
2022-10-14T12:15:17.257Z,0.32
2022-10-14T12:20:30.696Z,0.20
2022-10-14T12:25:44.157Z,0.10
2022-10-14T12:30:49.185Z,0.17
2022-10-14T12:35:59.270Z,0.15
2022-10-14T12:41:34.087Z,0.10
2022-10-14T12:46:45.170Z,0.00
2022-10-14T12:51:56.250Z,0.40
2022-10-14T12:57:03.042Z,0.30
2022-10-14T13:02:24.909Z,0.37
2022-10-14T13:07:41.168Z,0.32
2022-10-14T13:12:45.622Z,0.10
2022-10-14T13:17:50.532Z,0.10
2022-10-14T13:22:54.432Z,0.35
2022-10-14T13:28:16.169Z,0.20
2022-10-14T13:33:27.742Z,0.00
2022-10-14T13:38:32.901Z,0.00
2022-10-14T13:43:40.492Z,0.17
2022-10-14T13:48:48.318Z,0.20
2022-10-14T13:53:52.961Z,0.20
2022-10-14T13:58:57.036Z,0.00
2022-10-14T14:04:02.266Z,0.10
2022-10-14T14:09:07.944Z,0.10
2022-10-14T14:14:20.284Z,0.32
2022-10-14T14:19:30.117Z,0.28
2022-10-14T14:24:34.251Z,0.60
2022-10-14T14:29:39.015Z,0.20
2022-10-14T14:34:46.515Z,0.17
2022-10-14T14:39:57.443Z,0.25
2022-10-14T14:45:04.602Z,0.25
2022-10-14T14:50:31.438Z,0.00
2022-10-14T14:55:38.540Z,0.22
2022-10-14T15:00:46.232Z,0.10
2022-10-14T15:05:58.569Z,0.30
2022-10-14T15:11:03.018Z,0.47
2022-10-14T15:16:07.497Z,0.20
2022-10-14T15:21:20.155Z,0.28
2022-10-14T15:26:29.508Z,0.37
2022-10-14T15:31:33.090Z,0.20
2022-10-14T15:36:37.994Z,0.10
2022-10-14T15:41:41.931Z,0.03
2022-10-14T15:47:04.625Z,0.10
2022-10-14T15:52:14.304Z,0.40
2022-10-14T15:57:18.106Z,0.17
2022-10-14T16:02:25.266Z,0.00
2022-10-14T16:07:30.198Z,0.10
2022-10-14T16:12:33.705Z,0.03
2022-10-14T16:17:37.257Z,0.00
2022-10-14T16:22:42.180Z,0.00
2022-10-14T16:27:45.752Z,0.13
2022-10-14T16:32:51.207Z,0.30
2022-10-14T16:37:56.361Z,0.10
2022-10-14T16:42:59.878Z,0.10
2022-10-14T16:48:03.776Z,0.30
2022-10-14T16:53:25.997Z,0.10
2022-10-14T16:58:29.666Z,0.13
2022-10-14T17:03:33.189Z,0.20
2022-10-14T17:08:41.047Z,0.10
2022-10-14T17:13:44.772Z,0.28
2022-10-14T17:24:02.482Z,1.73
2022-10-14T17:29:06.004Z,2.15
2022-10-14T17:34:09.882Z,2.15
2022-10-14T17:39:22.823Z,1.40
2022-10-14T17:44:33.258Z,0.75
2022-10-14T17:49:37.429Z,1.37
2022-10-14T17:54:42.314Z,0.50
2022-10-14T17:59:45.829Z,0.30
2022-10-14T18:04:49.354Z,0.40
2022-10-14T18:09:54.226Z,1.17
2022-10-14T18:14:58.175Z,0.70
2022-10-14T18:20:05.471Z,0.93
2022-10-14T18:25:10.809Z,0.90
2022-10-14T18:30:14.603Z,0.50
2022-10-14T18:35:18.215Z,1.00
2022-10-14T18:40:23.421Z,0.55
2022-10-14T18:45:26.990Z,0.43
2022-10-14T18:50:30.735Z,0.97
2022-10-14T18:55:39.481Z,0.77
2022-10-14T19:00:42.994Z,0.90
2022-10-14T19:05:47.199Z,0.82
2022-10-14T19:10:52.158Z,0.25
2022-10-14T19:16:01.639Z,0.50
2022-10-14T19:21:08.565Z,0.60
2022-10-14T19:31:25.110Z,0.30
2022-10-14T19:36:29.111Z,0.95
2022-10-14T19:41:38.445Z,0.55
2022-10-14T19:46:42.377Z,1.12
2022-10-14T19:51:45.873Z,0.68
2022-10-14T19:56:50.753Z,0.75
2022-10-14T20:01:54.465Z,1.05
2022-10-14T20:06:58.046Z,0.70
2022-10-14T20:12:03.021Z,0.40
2022-10-14T20:17:06.691Z,0.70
2022-10-14T20:22:10.216Z,0.43
2022-10-14T20:27:15.147Z,0.77
2022-10-14T20:32:18.734Z,0.43
2022-10-14T20:37:24.358Z,0.57
2022-10-14T20:42:34.473Z,0.82
2022-10-14T20:47:38.065Z,0.30
2022-10-14T20:52:41.556Z,0.60
2022-10-14T20:57:46.459Z,0.25
2022-10-14T21:02:50.034Z,0.35
2022-10-14T21:07:53.801Z,0.60
2022-10-14T21:12:58.680Z,0.47
2022-10-14T21:18:02.201Z,0.52
2022-10-14T21:23:05.727Z,0.10
2022-10-14T21:28:10.786Z,0.50
2022-10-14T21:33:14.359Z,0.10
2022-10-14T21:38:17.899Z,0.10
2022-10-14T21:43:22.791Z,0.40
2022-10-14T21:48:26.320Z,0.28
2022-10-14T21:53:30.994Z,0.20
2022-10-14T22:08:46.060Z,0.13
2022-10-14T22:13:51.728Z,0.10
2022-10-14T22:18:55.273Z,0.20
2022-10-14T22:23:59.455Z,0.08
2022-10-14T22:29:07.449Z,0.25
